Etusivu
METAR-TAF:

METAR-TAF

Lentoasemat :

Dodge Center Airport (Dodge Center Municipal)

Dodge Center, Minnesota, Yhdysvallat

Leveyspiiri: 44-01-05N, Pituuspiiri: 092-49-53W, korkeus merenpinnasta: 398 m

Tämänhetkinen sää

Tämä raportti tehtiin 15 minuuttia sitten, kello 07.55 UTC
Tuuli 8 kn lännestä
Lämpötila 8°C
Kosteus 93%
Ilmanpaine 1012 hPa
Näkyvyys: 16.1 km
Pilvistä 2900 ft:n korkeudessa

METAR: KTOB 290755Z AUTO 27008KT 10SM OVC029 08/07 A2988 RMK AO2 PWINO

Aika: 03:10 (08:10 UTC)


TAF: puuttuu

Säähavainnot ja -ennusteet yli 4000 lentoasemalta (METAR- ja TAF-raportit).

Käytössä olevat sääasemat on merkitty karttaan keltaisilla ja punaisilla pisteillä.

Aseta hiiri pisteen päälle nähdäksesi sääaseman nimen.

Klikkaa sitten nähdäksesi säähavainnot ja -ennusteet.

Kartan vaihtaminen: klikkaa mustalla rastilla varustettuja vihreitä pisteitä, niin voit zoomata sisään; viivalla varustettua vihreää pistettä, niin voit zoomata ulos tai vihreitä nuolia, niin pääset viereisille kartoille.


METAR-TAF: